sensor_id;sensor_type;location;lat;lon;timestamp;pressure;altitude;pressure_sealevel;temperature;humidity
28628;BME280;15815;46.760;19.604;2023-07-13T00:00:47;99982.28;;;24.71;69.57
28628;BME280;15815;46.760;19.604;2023-07-13T00:03:12;99996.72;;;24.82;70.24
28628;BME280;15815;46.760;19.604;2023-07-13T00:05:40;99999.78;;;24.73;70.05
28628;BME280;15815;46.760;19.604;2023-07-13T00:08:05;100016.31;;;24.84;70.21
28628;BME280;15815;46.760;19.604;2023-07-13T00:10:31;100007.16;;;24.80;70.82
28628;BME280;15815;46.760;19.604;2023-07-13T00:12:57;99993.72;;;24.65;71.43
28628;BME280;15815;46.760;19.604;2023-07-13T00:15:25;100014.66;;;24.72;71.19
28628;BME280;15815;46.760;19.604;2023-07-13T00:17:52;99982.41;;;24.56;69.87
28628;BME280;15815;46.760;19.604;2023-07-13T00:20:21;100011.28;;;24.73;70.71
28628;BME280;15815;46.760;19.604;2023-07-13T00:22:47;100000.44;;;24.57;71.04
28628;BME280;15815;46.760;19.604;2023-07-13T00:25:13;100005.78;;;24.70;69.98
28628;BME280;15815;46.760;19.604;2023-07-13T00:27:43;99982.16;;;24.60;70.04
28628;BME280;15815;46.760;19.604;2023-07-13T00:30:09;99984.41;;;24.45;70.26
28628;BME280;15815;46.760;19.604;2023-07-13T00:32:36;100011.09;;;24.51;71.12
28628;BME280;15815;46.760;19.604;2023-07-13T00:35:02;100011.59;;;24.49;70.98
28628;BME280;15815;46.760;19.604;2023-07-13T00:37:27;100013.41;;;24.47;70.90
28628;BME280;15815;46.760;19.604;2023-07-13T00:39:53;100019.25;;;24.58;70.22
28628;BME280;15815;46.760;19.604;2023-07-13T00:42:18;100018.88;;;24.45;70.66
28628;BME280;15815;46.760;19.604;2023-07-13T00:47:49;100025.41;;;24.45;71.85
28628;BME280;15815;46.760;19.604;2023-07-13T00:50:16;99988.59;;;24.23;71.87
28628;BME280;15815;46.760;19.604;2023-07-13T00:52:46;100012.91;;;24.48;71.80
28628;BME280;15815;46.760;19.604;2023-07-13T00:55:13;100010.88;;;24.28;74.56
28628;BME280;15815;46.760;19.604;2023-07-13T00:57:40;100003.25;;;24.25;73.31
28628;BME280;15815;46.760;19.604;2023-07-13T01:00:07;99994.63;;;24.25;72.99
28628;BME280;15815;46.760;19.604;2023-07-13T01:02:33;99986.00;;;24.25;73.12
28628;BME280;15815;46.760;19.604;2023-07-13T01:05:04;99951.56;;;23.99;73.52
28628;BME280;15815;46.760;19.604;2023-07-13T01:07:38;99978.31;;;24.11;72.78
28628;BME280;15815;46.760;19.604;2023-07-13T01:10:07;99984.16;;;24.22;73.49
28628;BME280;15815;46.760;19.604;2023-07-13T01:12:33;99953.91;;;24.01;73.05
28628;BME280;15815;46.760;19.604;2023-07-13T01:15:02;99980.72;;;24.18;72.97
28628;BME280;15815;46.760;19.604;2023-07-13T01:17:28;99964.00;;;23.91;73.06
28628;BME280;15815;46.760;19.604;2023-07-13T01:19:58;99981.50;;;23.93;73.46
28628;BME280;15815;46.760;19.604;2023-07-13T01:22:24;99991.25;;;24.01;73.29
28628;BME280;15815;46.760;19.604;2023-07-13T01:24:53;99961.34;;;23.87;73.52
28628;BME280;15815;46.760;19.604;2023-07-13T01:27:25;99973.91;;;23.90;73.44
28628;BME280;15815;46.760;19.604;2023-07-13T01:29:52;99968.47;;;23.71;73.20
28628;BME280;15815;46.760;19.604;2023-07-13T01:32:23;100004.31;;;24.02;73.42
28628;BME280;15815;46.760;19.604;2023-07-13T01:34:53;99972.63;;;23.91;72.64
28628;BME280;15815;46.760;19.604;2023-07-13T01:37:19;99962.19;;;23.93;72.12
28628;BME280;15815;46.760;19.604;2023-07-13T01:39:44;99969.63;;;24.05;71.86
28628;BME280;15815;46.760;19.604;2023-07-13T01:42:10;99975.53;;;23.96;73.03
28628;BME280;15815;46.760;19.604;2023-07-13T01:44:36;99948.09;;;23.69;73.95
28628;BME280;15815;46.760;19.604;2023-07-13T01:47:02;99960.16;;;23.73;73.50
28628;BME280;15815;46.760;19.604;2023-07-13T01:49:28;99951.53;;;23.73;72.79
28628;BME280;15815;46.760;19.604;2023-07-13T01:51:56;99949.97;;;23.72;73.96
28628;BME280;15815;46.760;19.604;2023-07-13T01:54:21;99955.88;;;23.63;74.48
28628;BME280;15815;46.760;19.604;2023-07-13T01:56:47;99964.31;;;23.72;73.53
28628;BME280;15815;46.760;19.604;2023-07-13T01:59:14;99938.44;;;23.67;73.32
28628;BME280;15815;46.760;19.604;2023-07-13T02:01:39;99936.19;;;23.77;72.92
28628;BME280;15815;46.760;19.604;2023-07-13T02:04:05;99940.06;;;23.73;73.92
28628;BME280;15815;46.760;19.604;2023-07-13T02:06:31;99952.56;;;23.70;73.92
28628;BME280;15815;46.760;19.604;2023-07-13T02:08:57;99955.66;;;23.67;74.23
28628;BME280;15815;46.760;19.604;2023-07-13T02:11:22;99948.66;;;23.73;73.09
28628;BME280;15815;46.760;19.604;2023-07-13T02:13:48;99928.69;;;23.59;73.71
28628;BME280;15815;46.760;19.604;2023-07-13T02:16:13;99943.38;;;23.66;74.17
28628;BME280;15815;46.760;19.604;2023-07-13T02:18:39;99918.53;;;23.58;73.75
28628;BME280;15815;46.760;19.604;2023-07-13T02:21:05;99919.41;;;23.49;73.91
28628;BME280;15815;46.760;19.604;2023-07-13T02:23:33;99923.72;;;23.19;76.32
28628;BME280;15815;46.760;19.604;2023-07-13T02:26:01;99944.16;;;23.47;75.04
28628;BME280;15815;46.760;19.604;2023-07-13T02:28:27;99917.78;;;23.22;76.09
28628;BME280;15815;46.760;19.604;2023-07-13T02:30:53;99899.06;;;23.27;74.95
28628;BME280;15815;46.760;19.604;2023-07-13T02:33:18;99923.16;;;23.35;74.77
28628;BME280;15815;46.760;19.604;2023-07-13T02:35:44;99928.03;;;23.29;75.25
28628;BME280;15815;46.760;19.604;2023-07-13T02:38:09;99914.63;;;23.20;75.26
28628;BME280;15815;46.760;19.604;2023-07-13T02:40:36;99935.50;;;23.41;74.51
28628;BME280;15815;46.760;19.604;2023-07-13T02:43:02;99922.59;;;23.31;75.98
28628;BME280;15815;46.760;19.604;2023-07-13T02:45:28;99913.28;;;23.16;75.98
28628;BME280;15815;46.760;19.604;2023-07-13T02:47:55;99940.88;;;23.33;75.17
28628;BME280;15815;46.760;19.604;2023-07-13T02:50:20;99926.94;;;23.26;75.10
28628;BME280;15815;46.760;19.604;2023-07-13T02:52:46;99909.03;;;23.11;75.13
28628;BME280;15815;46.760;19.604;2023-07-13T02:55:12;99923.28;;;23.26;75.03
28628;BME280;15815;46.760;19.604;2023-07-13T02:57:38;99935.19;;;23.39;74.54
28628;BME280;15815;46.760;19.604;2023-07-13T03:00:04;99917.72;;;23.17;77.37
28628;BME280;15815;46.760;19.604;2023-07-13T03:02:32;99913.28;;;23.16;76.99
28628;BME280;15815;46.760;19.604;2023-07-13T03:04:58;99911.97;;;23.17;76.64
28628;BME280;15815;46.760;19.604;2023-07-13T03:07:24;99917.13;;;23.12;78.05
28628;BME280;15815;46.760;19.604;2023-07-13T03:10:00;99948.31;;;23.25;78.71
28628;BME280;15815;46.760;19.604;2023-07-13T03:12:26;99955.91;;;23.28;77.76
28628;BME280;15815;46.760;19.604;2023-07-13T03:14:51;99932.31;;;23.19;79.55
28628;BME280;15815;46.760;19.604;2023-07-13T03:17:17;99930.31;;;23.25;78.40
28628;BME280;15815;46.760;19.604;2023-07-13T03:19:43;99930.69;;;23.32;78.38
28628;BME280;15815;46.760;19.604;2023-07-13T03:22:08;99929.19;;;23.17;79.97
28628;BME280;15815;46.760;19.604;2023-07-13T03:24:34;99912.53;;;23.21;78.77
28628;BME280;15815;46.760;19.604;2023-07-13T03:27:04;99923.38;;;23.31;79.28
28628;BME280;15815;46.760;19.604;2023-07-13T03:29:30;99936.94;;;23.31;79.85
28628;BME280;15815;46.760;19.604;2023-07-13T03:31:57;99931.47;;;23.33;79.46
28628;BME280;15815;46.760;19.604;2023-07-13T03:34:22;99930.75;;;23.38;80.40
28628;BME280;15815;46.760;19.604;2023-07-13T03:36:53;99919.00;;;23.36;81.25
28628;BME280;15815;46.760;19.604;2023-07-13T03:39:22;99892.47;;;23.21;80.73
28628;BME280;15815;46.760;19.604;2023-07-13T03:41:47;99893.13;;;23.30;80.23
28628;BME280;15815;46.760;19.604;2023-07-13T03:44:15;99890.63;;;23.18;81.00
28628;BME280;15815;46.760;19.604;2023-07-13T03:46:40;99916.97;;;23.42;80.45
28628;BME280;15815;46.760;19.604;2023-07-13T03:49:06;99914.13;;;23.42;81.71
28628;BME280;15815;46.760;19.604;2023-07-13T03:51:32;99889.91;;;23.23;81.39
28628;BME280;15815;46.760;19.604;2023-07-13T03:53:58;99900.06;;;23.44;80.39
28628;BME280;15815;46.760;19.604;2023-07-13T03:56:24;99885.16;;;23.40;80.63
28628;BME280;15815;46.760;19.604;2023-07-13T03:58:50;99895.16;;;23.50;80.34
28628;BME280;15815;46.760;19.604;2023-07-13T04:01:17;99884.88;;;23.58;80.54
28628;BME280;15815;46.760;19.604;2023-07-13T04:03:44;99865.88;;;23.40;81.43
28628;BME280;15815;46.760;19.604;2023-07-13T04:06:30;99897.47;;;23.92;80.19
28628;BME280;15815;46.760;19.604;2023-07-13T04:09:00;99875.66;;;23.74;80.11
28628;BME280;15815;46.760;19.604;2023-07-13T04:11:29;99905.53;;;24.14;78.91
28628;BME280;15815;46.760;19.604;2023-07-13T04:13:55;99900.06;;;24.16;79.08
28628;BME280;15815;46.760;19.604;2023-07-13T04:16:21;99926.56;;;24.31;78.42
28628;BME280;15815;46.760;19.604;2023-07-13T04:18:47;99935.81;;;24.41;78.22
28628;BME280;15815;46.760;19.604;2023-07-13T04:21:13;99921.09;;;24.33;78.21
28628;BME280;15815;46.760;19.604;2023-07-13T04:23:39;99942.00;;;24.34;78.47
28628;BME280;15815;46.760;19.604;2023-07-13T04:26:05;99960.25;;;24.62;77.42
28628;BME280;15815;46.760;19.604;2023-07-13T04:28:31;99974.56;;;24.57;77.79
28628;BME280;15815;46.760;19.604;2023-07-13T04:30:57;100006.34;;;24.48;78.05
28628;BME280;15815;46.760;19.604;2023-07-13T04:33:26;100019.75;;;24.56;77.31
28628;BME280;15815;46.760;19.604;2023-07-13T04:35:53;100039.34;;;24.58;77.38
28628;BME280;15815;46.760;19.604;2023-07-13T04:38:19;100048.72;;;24.53;76.98
28628;BME280;15815;46.760;19.604;2023-07-13T04:40:45;100059.66;;;24.49;76.93
28628;BME280;15815;46.760;19.604;2023-07-13T04:43:11;100071.59;;;24.42;77.41
28628;BME280;15815;46.760;19.604;2023-07-13T04:45:36;100076.84;;;24.43;76.93
28628;BME280;15815;46.760;19.604;2023-07-13T04:48:03;100074.19;;;24.40;77.31
28628;BME280;15815;46.760;19.604;2023-07-13T04:50:29;100104.34;;;24.29;77.90
28628;BME280;15815;46.760;19.604;2023-07-13T04:52:54;100122.72;;;24.38;78.10
28628;BME280;15815;46.760;19.604;2023-07-13T13:35:37;100126.03;;;32.97;42.06
28628;BME280;15815;46.760;19.604;2023-07-13T13:38:29;100104.75;;;32.68;41.54
28628;BME280;15815;46.760;19.604;2023-07-13T13:40:55;100126.75;;;32.90;42.59
28628;BME280;15815;46.760;19.604;2023-07-13T13:43:23;100118.47;;;32.80;43.46
28628;BME280;15815;46.760;19.604;2023-07-13T13:45:49;100105.34;;;32.87;43.63
28628;BME280;15815;46.760;19.604;2023-07-13T13:48:31;100095.41;;;32.82;42.90
28628;BME280;15815;46.760;19.604;2023-07-13T13:50:58;100087.22;;;32.60;43.86
28628;BME280;15815;46.760;19.604;2023-07-13T13:53:24;100125.97;;;32.76;44.03
28628;BME280;15815;46.760;19.604;2023-07-13T13:55:51;100135.69;;;32.78;43.05
28628;BME280;15815;46.760;19.604;2023-07-13T13:58:16;100100.06;;;32.65;43.65
28628;BME280;15815;46.760;19.604;2023-07-13T14:00:45;100127.63;;;32.84;43.85
28628;BME280;15815;46.760;19.604;2023-07-13T14:03:21;100118.66;;;32.62;42.77
28628;BME280;15815;46.760;19.604;2023-07-13T14:05:47;100105.66;;;32.63;44.56
28628;BME280;15815;46.760;19.604;2023-07-13T14:08:20;100118.03;;;32.76;43.22
28628;BME280;15815;46.760;19.604;2023-07-13T14:10:48;100102.75;;;32.63;43.50
28628;BME280;15815;46.760;19.604;2023-07-13T14:13:42;100103.63;;;32.57;42.34
28628;BME280;15815;46.760;19.604;2023-07-13T14:16:18;100107.50;;;32.39;41.87
28628;BME280;15815;46.760;19.604;2023-07-13T14:18:45;100140.53;;;32.76;43.73
28628;BME280;15815;46.760;19.604;2023-07-13T14:21:15;100126.88;;;32.71;43.65
28628;BME280;15815;46.760;19.604;2023-07-13T14:23:43;100122.34;;;32.62;44.62
28628;BME280;15815;46.760;19.604;2023-07-13T14:26:15;100107.38;;;32.32;41.92
28628;BME280;15815;46.760;19.604;2023-07-13T14:28:49;100116.34;;;32.20;41.89
28628;BME280;15815;46.760;19.604;2023-07-13T14:31:17;100112.13;;;32.08;44.51
28628;BME280;15815;46.760;19.604;2023-07-13T14:33:46;100092.19;;;31.99;44.75
28628;BME280;15815;46.760;19.604;2023-07-13T14:36:32;100124.06;;;32.05;41.91
28628;BME280;15815;46.760;19.604;2023-07-13T14:39:01;100137.91;;;32.25;44.23
28628;BME280;15815;46.760;19.604;2023-07-13T14:41:30;100121.84;;;32.11;44.70
28628;BME280;15815;46.760;19.604;2023-07-13T14:43:56;100120.03;;;32.21;44.52
28628;BME280;15815;46.760;19.604;2023-07-13T14:46:30;100098.38;;;32.09;44.32
28628;BME280;15815;46.760;19.604;2023-07-13T14:49:02;100124.84;;;32.18;42.25
28628;BME280;15815;46.760;19.604;2023-07-13T14:51:29;100103.28;;;32.14;44.55
28628;BME280;15815;46.760;19.604;2023-07-13T14:54:02;100135.38;;;32.35;43.47
28628;BME280;15815;46.760;19.604;2023-07-13T14:56:28;100134.03;;;32.36;42.46
28628;BME280;15815;46.760;19.604;2023-07-13T14:58:53;100105.38;;;32.26;44.18
28628;BME280;15815;46.760;19.604;2023-07-13T15:01:20;100089.28;;;32.12;44.07
28628;BME280;15815;46.760;19.604;2023-07-13T15:03:49;100082.91;;;32.14;44.24
28628;BME280;15815;46.760;19.604;2023-07-13T15:06:15;100098.34;;;32.35;44.38
28628;BME280;15815;46.760;19.604;2023-07-13T15:08:41;100110.97;;;32.24;43.73
28628;BME280;15815;46.760;19.604;2023-07-13T15:11:08;100128.00;;;32.34;44.47
28628;BME280;15815;46.760;19.604;2023-07-13T15:13:34;100104.94;;;32.22;44.54
28628;BME280;15815;46.760;19.604;2023-07-13T15:16:00;100109.88;;;32.14;44.34
28628;BME280;15815;46.760;19.604;2023-07-13T15:18:27;100109.88;;;32.14;43.56
28628;BME280;15815;46.760;19.604;2023-07-13T15:20:53;100103.84;;;31.99;43.70
28628;BME280;15815;46.760;19.604;2023-07-13T15:23:19;100094.00;;;31.89;41.51
28628;BME280;15815;46.760;19.604;2023-07-13T15:25:45;100114.81;;;32.06;44.15
28628;BME280;15815;46.760;19.604;2023-07-13T15:28:11;100107.44;;;31.79;44.32
28628;BME280;15815;46.760;19.604;2023-07-13T15:30:44;100114.97;;;31.68;44.15
28628;BME280;15815;46.760;19.604;2023-07-13T15:33:27;100156.22;;;31.67;43.52
28628;BME280;15815;46.760;19.604;2023-07-13T15:35:53;100225.53;;;31.44;44.15
28628;BME280;15815;46.760;19.604;2023-07-13T15:38:29;100330.53;;;31.11;43.78
28628;BME280;15815;46.760;19.604;2023-07-13T15:40:56;100306.88;;;30.82;44.88
28628;BME280;15815;46.760;19.604;2023-07-13T15:43:22;100205.53;;;30.47;49.72
28628;BME280;15815;46.760;19.604;2023-07-13T15:45:47;100257.53;;;29.84;51.64
28628;BME280;15815;46.760;19.604;2023-07-13T15:48:23;100206.94;;;28.90;54.17
28628;BME280;15815;46.760;19.604;2023-07-13T15:50:54;100186.69;;;28.21;56.04
28628;BME280;15815;46.760;19.604;2023-07-13T15:53:32;100192.34;;;27.68;58.16
28628;BME280;15815;46.760;19.604;2023-07-13T15:55:58;100183.94;;;27.48;57.79
28628;BME280;15815;46.760;19.604;2023-07-13T15:58:24;100209.63;;;27.85;56.93
28628;BME280;15815;46.760;19.604;2023-07-13T16:00:54;100134.28;;;27.83;57.45
28628;BME280;15815;46.760;19.604;2023-07-13T16:03:20;100135.31;;;27.91;57.67
28628;BME280;15815;46.760;19.604;2023-07-13T16:05:46;100149.53;;;27.78;59.38
28628;BME280;15815;46.760;19.604;2023-07-13T16:08:32;100182.06;;;27.95;61.41
28628;BME280;15815;46.760;19.604;2023-07-13T16:10:59;100208.59;;;27.88;59.97
28628;BME280;15815;46.760;19.604;2023-07-13T16:13:26;100222.78;;;27.75;60.52
28628;BME280;15815;46.760;19.604;2023-07-13T16:15:53;100250.09;;;27.80;61.42
28628;BME280;15815;46.760;19.604;2023-07-13T16:18:19;100244.31;;;27.74;60.55
28628;BME280;15815;46.760;19.604;2023-07-13T16:20:48;100240.91;;;27.76;61.65
28628;BME280;15815;46.760;19.604;2023-07-13T16:23:15;100217.53;;;27.74;60.58
28628;BME280;15815;46.760;19.604;2023-07-13T16:25:42;100239.84;;;27.73;60.88
28628;BME280;15815;46.760;19.604;2023-07-13T16:28:12;100260.06;;;27.67;62.46
28628;BME280;15815;46.760;19.604;2023-07-13T16:30:38;100249.00;;;27.44;62.11
28628;BME280;15815;46.760;19.604;2023-07-13T16:33:04;100284.19;;;27.53;62.24
28628;BME280;15815;46.760;19.604;2023-07-13T16:35:34;100292.03;;;27.53;62.16
28628;BME280;15815;46.760;19.604;2023-07-13T16:38:00;100247.69;;;27.33;63.23
28628;BME280;15815;46.760;19.604;2023-07-13T16:40:28;100208.84;;;27.29;63.35
28628;BME280;15815;46.760;19.604;2023-07-13T16:42:56;100202.81;;;27.21;63.51
28628;BME280;15815;46.760;19.604;2023-07-13T16:45:27;100188.13;;;27.30;63.16
28628;BME280;15815;46.760;19.604;2023-07-13T16:47:55;100170.31;;;27.15;63.20
28628;BME280;15815;46.760;19.604;2023-07-13T16:50:24;100161.38;;;27.13;64.10
28628;BME280;15815;46.760;19.604;2023-07-13T16:52:51;100165.53;;;26.90;66.30
28628;BME280;15815;46.760;19.604;2023-07-13T16:55:19;100173.41;;;27.00;64.41
28628;BME280;15815;46.760;19.604;2023-07-13T16:57:46;100174.69;;;26.94;64.99
28628;BME280;15815;46.760;19.604;2023-07-13T17:00:29;100194.66;;;27.03;66.82
28628;BME280;15815;46.760;19.604;2023-07-13T17:02:57;100202.22;;;26.89;65.49
28628;BME280;15815;46.760;19.604;2023-07-13T17:05:22;100225.25;;;26.78;65.79
28628;BME280;15815;46.760;19.604;2023-07-13T17:07:48;100275.63;;;26.88;65.70
28628;BME280;15815;46.760;19.604;2023-07-13T17:10:19;100259.56;;;26.76;67.15
28628;BME280;15815;46.760;19.604;2023-07-13T17:12:53;100220.53;;;26.75;67.51
28628;BME280;15815;46.760;19.604;2023-07-13T17:15:19;100189.56;;;26.64;66.34
28628;BME280;15815;46.760;19.604;2023-07-13T17:17:46;100134.47;;;26.40;67.88
28628;BME280;15815;46.760;19.604;2023-07-13T17:20:27;100134.75;;;26.42;70.38
28628;BME280;15815;46.760;19.604;2023-07-13T17:22:54;100138.69;;;26.44;68.97
28628;BME280;15815;46.760;19.604;2023-07-13T17:25:21;100162.34;;;26.11;70.77
28628;BME280;15815;46.760;19.604;2023-07-13T17:27:48;100158.03;;;25.84;72.11
28628;BME280;15815;46.760;19.604;2023-07-13T17:30:16;100160.78;;;25.68;72.88
28628;BME280;15815;46.760;19.604;2023-07-13T17:32:43;100151.03;;;25.60;72.93
28628;BME280;15815;46.760;19.604;2023-07-13T17:35:28;100137.78;;;25.73;73.71
28628;BME280;15815;46.760;19.604;2023-07-13T17:37:58;100138.41;;;25.88;72.70
28628;BME280;15815;46.760;19.604;2023-07-13T17:40:24;100122.53;;;25.62;72.74
28628;BME280;15815;46.760;19.604;2023-07-13T17:42:51;100125.09;;;25.54;73.52
28628;BME280;15815;46.760;19.604;2023-07-13T17:45:17;100115.41;;;25.51;73.78
28628;BME280;15815;46.760;19.604;2023-07-13T17:47:42;100104.94;;;25.48;74.16
28628;BME280;15815;46.760;19.604;2023-07-13T17:50:14;100125.06;;;25.48;76.00
28628;BME280;15815;46.760;19.604;2023-07-13T17:52:40;100123.56;;;25.58;74.45
28628;BME280;15815;46.760;19.604;2023-07-13T17:55:17;100139.72;;;25.50;76.05
28628;BME280;15815;46.760;19.604;2023-07-13T17:57:44;100152.63;;;25.61;74.62
28628;BME280;15815;46.760;19.604;2023-07-13T18:00:10;100189.59;;;25.73;74.68
28628;BME280;15815;46.760;19.604;2023-07-13T18:02:37;100202.66;;;25.69;74.60
28628;BME280;15815;46.760;19.604;2023-07-13T18:05:03;100173.69;;;25.78;73.55
28628;BME280;15815;46.760;19.604;2023-07-13T18:07:28;100172.41;;;25.79;73.11
28628;BME280;15815;46.760;19.604;2023-07-13T18:09:55;100128.88;;;25.71;73.13
28628;BME280;15815;46.760;19.604;2023-07-13T18:12:21;100147.78;;;25.78;73.73
28628;BME280;15815;46.760;19.604;2023-07-13T18:14:47;100161.53;;;25.63;74.67
28628;BME280;15815;46.760;19.604;2023-07-13T18:17:13;100152.44;;;25.70;75.10
28628;BME280;15815;46.760;19.604;2023-07-13T18:19:44;100163.66;;;25.68;75.15
28628;BME280;15815;46.760;19.604;2023-07-13T18:22:13;100170.91;;;25.57;75.61
28628;BME280;15815;46.760;19.604;2023-07-13T18:24:40;100178.34;;;25.38;75.76
28628;BME280;15815;46.760;19.604;2023-07-13T18:27:06;100185.59;;;25.28;75.98
28628;BME280;15815;46.760;19.604;2023-07-13T18:29:32;100186.66;;;25.31;75.38
28628;BME280;15815;46.760;19.604;2023-07-13T18:31:58;100190.59;;;25.33;74.73
28628;BME280;15815;46.760;19.604;2023-07-13T18:34:24;100186.88;;;25.27;76.01
28628;BME280;15815;46.760;19.604;2023-07-13T18:36:51;100188.34;;;25.17;75.46
28628;BME280;15815;46.760;19.604;2023-07-13T18:39:18;100205.59;;;25.17;75.59
28628;BME280;15815;46.760;19.604;2023-07-13T18:41:44;100201.59;;;25.09;75.68
28628;BME280;15815;46.760;19.604;2023-07-13T18:44:10;100199.47;;;25.04;76.35
28628;BME280;15815;46.760;19.604;2023-07-13T18:46:36;100192.56;;;24.95;76.91
28628;BME280;15815;46.760;19.604;2023-07-13T18:49:03;100214.94;;;24.86;77.74
28628;BME280;15815;46.760;19.604;2023-07-13T18:51:28;100213.59;;;24.81;76.83
28628;BME280;15815;46.760;19.604;2023-07-13T18:53:54;100221.75;;;24.88;77.49
28628;BME280;15815;46.760;19.604;2023-07-13T18:56:20;100209.88;;;24.75;77.61
28628;BME280;15815;46.760;19.604;2023-07-13T18:58:49;100208.13;;;24.63;78.83
28628;BME280;15815;46.760;19.604;2023-07-13T19:03:53;100212.84;;;24.40;78.90
28628;BME280;15815;46.760;19.604;2023-07-13T19:06:19;100230.88;;;24.41;80.29
28628;BME280;15815;46.760;19.604;2023-07-13T19:08:45;100219.56;;;24.37;79.58
28628;BME280;15815;46.760;19.604;2023-07-13T19:11:15;100216.91;;;24.33;79.97
28628;BME280;15815;46.760;19.604;2023-07-13T19:13:41;100204.25;;;24.25;78.68
28628;BME280;15815;46.760;19.604;2023-07-13T19:16:09;100214.34;;;24.35;79.34
28628;BME280;15815;46.760;19.604;2023-07-13T19:18:34;100212.75;;;24.34;78.57
28628;BME280;15815;46.760;19.604;2023-07-13T19:21:07;100210.91;;;24.31;79.06
28628;BME280;15815;46.760;19.604;2023-07-13T19:23:37;100212.53;;;24.18;80.29
28628;BME280;15815;46.760;19.604;2023-07-13T19:26:53;100230.19;;;24.11;80.67
28628;BME280;15815;46.760;19.604;2023-07-13T19:29:13;100246.59;;;24.10;79.54
28628;BME280;15815;46.760;19.604;2023-07-13T19:31:39;100246.59;;;24.10;78.78
28628;BME280;15815;46.760;19.604;2023-07-13T19:34:13;100248.66;;;24.10;79.39
28628;BME280;15815;46.760;19.604;2023-07-13T19:36:40;100243.00;;;23.95;80.42
28628;BME280;15815;46.760;19.604;2023-07-13T19:39:26;100259.50;;;24.00;80.88
28628;BME280;15815;46.760;19.604;2023-07-13T19:41:55;100260.78;;;23.99;79.52
28628;BME280;15815;46.760;19.604;2023-07-13T19:44:25;100252.41;;;23.95;80.21
28628;BME280;15815;46.760;19.604;2023-07-13T19:46:51;100273.00;;;23.94;80.35
28628;BME280;15815;46.760;19.604;2023-07-13T19:49:17;100274.50;;;23.89;80.24
28628;BME280;15815;46.760;19.604;2023-07-13T19:51:43;100282.69;;;23.96;80.18
28628;BME280;15815;46.760;19.604;2023-07-13T19:54:12;100306.00;;;24.04;79.92
28628;BME280;15815;46.760;19.604;2023-07-13T19:56:39;100306.00;;;24.04;79.47
28628;BME280;15815;46.760;19.604;2023-07-13T20:01:50;100312.47;;;23.99;79.45
28628;BME280;15815;46.760;19.604;2023-07-13T20:04:16;100332.78;;;23.95;80.05
28628;BME280;15815;46.760;19.604;2023-07-13T20:06:42;100344.84;;;23.99;79.99
28628;BME280;15815;46.760;19.604;2023-07-13T20:09:16;100341.88;;;23.94;81.68
28628;BME280;15815;46.760;19.604;2023-07-13T20:11:43;100322.59;;;23.80;81.30
28628;BME280;15815;46.760;19.604;2023-07-13T20:14:19;100322.50;;;23.89;80.97
28628;BME280;15815;46.760;19.604;2023-07-13T20:16:46;100305.66;;;23.82;81.59
28628;BME280;15815;46.760;19.604;2023-07-13T20:19:13;100290.84;;;23.83;81.08
28628;BME280;15815;46.760;19.604;2023-07-13T20:21:40;100268.47;;;23.72;82.27
28628;BME280;15815;46.760;19.604;2023-07-13T20:24:33;100274.50;;;23.74;82.03
28628;BME280;15815;46.760;19.604;2023-07-13T20:26:58;100281.31;;;23.77;81.11
28628;BME280;15815;46.760;19.604;2023-07-13T20:31:57;100265.47;;;23.82;81.13
28628;BME280;15815;46.760;19.604;2023-07-13T20:34:26;100265.78;;;23.84;81.55
28628;BME280;15815;46.760;19.604;2023-07-13T20:36:53;100261.31;;;23.83;81.72
28628;BME280;15815;46.760;19.604;2023-07-13T20:39:19;100276.38;;;23.78;81.76
28628;BME280;15815;46.760;19.604;2023-07-13T20:41:45;100250.66;;;23.68;81.58
28628;BME280;15815;46.760;19.604;2023-07-13T20:44:11;100290.84;;;23.83;81.78
28628;BME280;15815;46.760;19.604;2023-07-13T20:46:37;100312.09;;;23.91;81.28
28628;BME280;15815;46.760;19.604;2023-07-13T20:49:02;100327.22;;;23.92;81.75
28628;BME280;15815;46.760;19.604;2023-07-13T20:51:28;100336.34;;;23.90;81.49
28628;BME280;15815;46.760;19.604;2023-07-13T20:53:54;100348.03;;;23.87;82.40
28628;BME280;15815;46.760;19.604;2023-07-13T20:56:22;100333.19;;;23.88;82.05
28628;BME280;15815;46.760;19.604;2023-07-13T20:58:48;100342.50;;;23.83;82.22
28628;BME280;15815;46.760;19.604;2023-07-13T21:03:58;100330.59;;;23.76;82.67
28628;BME280;15815;46.760;19.604;2023-07-13T21:06:27;100346.81;;;23.79;82.65
28628;BME280;15815;46.760;19.604;2023-07-13T21:08:52;100327.84;;;23.66;83.06
28628;BME280;15815;46.760;19.604;2023-07-13T21:11:18;100323.97;;;23.69;83.46
28628;BME280;15815;46.760;19.604;2023-07-13T21:13:43;100301.53;;;23.68;83.19
28628;BME280;15815;46.760;19.604;2023-07-13T21:16:21;100293.41;;;23.66;83.74
28628;BME280;15815;46.760;19.604;2023-07-13T21:18:49;100305.69;;;23.67;83.11
28628;BME280;15815;46.760;19.604;2023-07-13T21:21:20;100306.28;;;23.71;82.41
28628;BME280;15815;46.760;19.604;2023-07-13T21:23:47;100307.47;;;23.64;82.69
28628;BME280;15815;46.760;19.604;2023-07-13T21:26:14;100303.84;;;23.55;84.33
28628;BME280;15815;46.760;19.604;2023-07-13T21:28:41;100307.09;;;23.57;84.09
28628;BME280;15815;46.760;19.604;2023-07-13T21:31:26;100305.88;;;23.63;84.50
28628;BME280;15815;46.760;19.604;2023-07-13T21:34:17;100304.25;;;23.48;84.90
28628;BME280;15815;46.760;19.604;2023-07-13T21:36:41;100301.88;;;23.46;85.15
28628;BME280;15815;46.760;19.604;2023-07-13T21:39:11;100302.88;;;23.43;85.09
28628;BME280;15815;46.760;19.604;2023-07-13T21:41:38;100301.91;;;23.31;86.52